Rishon LeZiyyon, Israel
Current Conditions -  °F | °C
As of 7:20 AM on Friday 31 Oct 2014 (Local Time) from LLBG Reporting Station
Scattered Clouds Scattered Clouds  
Wind Chill: 63°   Ceiling: Unl
Heat Index: 63°   Visibility: 6mi
Dew Point: 61°   Wind: 8mph
Humidity: 94%   Direction: 130°SE
Pressure: 29.91"   Gusts: NA
Location:  31.96°N, 34.8°E
Report Text: LLBG 310420Z 13007KT 9999 FEW025 SCT035 17/16 Q1013 NOSIG RMKRERA
Loading
Personal Weather Stations






























Interactive Weather Map
Tropical Storm Tracking
New forecast layout! Learn more

10-Day Weather Forecast

Advertisements
Track Severe Weather on mobile